Time;durP1;ratioP1;P1;durP2;ratioP2;P2;SDS_P1;SDS_P2;PMS_P1;PMS_P2;Temp;Humidity;BMP_temperature;BMP_pressure;BME280_temperature;BME280_humidity;BME280_pressure;Samples;Min_cycle;Max_cycle;Signal;HPM_P1;HPM_P2
2023/01/05 00:01:45;;;;;;;26.65;10.38;;;9.80;99.90;;;;;;4986233;28;20038;-70
2023/01/05 00:04:13;;;;;;;38.13;10.40;;;9.80;99.90;;;;;;4991719;28;20100;-70
2023/01/05 00:06:41;;;;;;;37.65;10.07;;;9.80;99.90;;;;;;4989067;28;20041;-71
2023/01/05 00:09:11;;;;;;;31.45;11.98;;;9.80;99.90;;;;;;4990531;28;20074;-70
2023/01/05 00:22:45;;;;;;;;;;;9.50;99.90;;;;;;4971568;28;20052;-71
2023/01/05 00:25:15;;;;;;;49.90;11.77;;;9.40;99.90;;;;;;4971804;28;20399;-71
2023/01/05 00:27:43;;;;;;;31.92;10.43;;;9.40;99.90;;;;;;4969198;28;20048;-70
2023/01/05 00:30:12;;;;;;;39.65;13.05;;;9.40;99.90;;;;;;4968930;28;20149;-70
2023/01/05 00:32:41;;;;;;;42.13;14.15;;;9.30;99.90;;;;;;4994015;28;20577;-71
2023/01/05 00:35:08;;;;;;;44.75;12.43;;;9.30;99.90;;;;;;4990463;28;20078;-71
2023/01/05 00:37:38;;;;;;;40.53;11.38;;;9.30;99.90;;;;;;4987930;28;20073;-71
2023/01/05 00:40:10;;;;;;;35.63;11.23;;;9.30;99.90;;;;;;4990658;28;20052;-70
2023/01/05 00:42:37;;;;;;;38.78;9.93;;;9.30;99.90;;;;;;4988459;28;20555;-71
2023/01/05 00:45:06;;;;;;;27.73;11.43;;;9.40;99.90;;;;;;4989057;28;20069;-70
2023/01/05 00:47:33;;;;;;;29.83;14.30;;;9.30;99.90;;;;;;4970103;28;20456;-70
2023/01/05 00:49:59;;;;;;;35.95;11.07;;;9.30;99.90;;;;;;4970141;28;20054;-71
2023/01/05 00:52:26;;;;;;;34.50;11.15;;;9.30;99.90;;;;;;4955221;28;20061;-70
2023/01/05 00:54:53;;;;;;;40.63;13.60;;;9.30;99.90;;;;;;4967439;28;20521;-71
2023/01/05 00:57:20;;;;;;;39.95;11.35;;;9.30;99.90;;;;;;4968799;28;20129;-71
2023/01/05 00:59:47;;;;;;;37.83;12.35;;;9.30;99.90;;;;;;4954359;28;20057;-70
2023/01/05 01:02:13;;;;;;;70.10;17.33;;;9.20;99.90;;;;;;4986135;28;20052;-70
2023/01/05 01:04:40;;;;;;;48.53;13.23;;;9.20;99.90;;;;;;4989625;28;20042;-71
2023/01/05 01:07:07;;;;;;;47.47;13.20;;;9.20;99.90;;;;;;4990263;28;20099;-70
2023/01/05 01:09:34;;;;;;;41.75;11.90;;;9.20;99.90;;;;;;4972822;28;20046;-70
2023/01/05 01:12:01;;;;;;;51.25;13.65;;;9.20;99.90;;;;;;4988414;28;20056;-69
2023/01/05 01:14:28;;;;;;;37.75;11.57;;;9.20;99.90;;;;;;4987969;28;20056;-69
2023/01/05 01:16:54;;;;;;;40.47;10.13;;;9.20;99.90;;;;;;4972771;28;20069;-70
2023/01/05 01:19:24;;;;;;;41.58;11.38;;;9.20;99.90;;;;;;4992842;28;20119;-70
2023/01/05 01:21:51;;;;;;;48.60;12.75;;;9.30;99.90;;;;;;4988571;28;20056;-71
2023/01/05 01:24:21;;;;;;;38.55;13.00;;;9.20;99.90;;;;;;4990544;28;20057;-70
2023/01/05 01:26:48;;;;;;;30.65;9.32;;;9.20;99.90;;;;;;4988441;28;20042;-70
2023/01/05 01:29:18;;;;;;;40.10;10.60;;;9.20;99.90;;;;;;4989844;28;20550;-70
2023/01/05 01:31:49;;;;;;;26.33;8.85;;;9.20;99.90;;;;;;4990934;28;20100;-70
2023/01/05 01:34:16;;;;;;;32.20;9.30;;;9.30;99.90;;;;;;4994205;28;20962;-70
2023/01/05 01:36:44;;;;;;;26.48;8.55;;;9.30;99.90;;;;;;4992987;28;20046;-70
2023/01/05 01:39:13;;;;;;;26.90;7.60;;;9.30;99.90;;;;;;4993531;28;20097;-70
2023/01/05 01:41:43;;;;;;;29.65;7.50;;;9.30;99.90;;;;;;4992603;28;20038;-70
2023/01/05 01:44:48;;;;;;;34.33;7.90;;;9.30;99.90;;;;;;4993732;28;20080;-70
2023/01/05 01:47:20;;;;;;;;;;;9.30;99.90;;;;;;4993524;28;20508;-68
2023/01/05 01:49:48;;;;;;;32.30;7.45;;;9.30;99.90;;;;;;4992556;28;19961;-69
2023/01/05 01:52:15;;;;;;;28.45;6.43;;;9.30;99.90;;;;;;4993683;28;20052;-69
2023/01/05 01:54:42;;;;;;;24.30;6.60;;;9.30;99.90;;;;;;4992375;28;20471;-70
2023/01/05 01:57:10;;;;;;;35.97;8.40;;;9.20;99.90;;;;;;4993385;28;20441;-70
2023/01/05 01:59:37;;;;;;;36.80;8.45;;;9.20;99.90;;;;;;4993299;28;20049;-70
2023/01/05 02:02:06;;;;;;;34.13;7.30;;;9.10;99.90;;;;;;4991370;28;20045;-69
2023/01/05 02:04:35;;;;;;;28.15;7.40;;;9.10;99.90;;;;;;5008942;28;20046;-69
2023/01/05 02:07:03;;;;;;;33.72;8.30;;;9.10;99.90;;;;;;4991995;28;20068;-70
2023/01/05 02:09:30;;;;;;;29.13;7.88;;;9.10;99.90;;;;;;4995090;28;20500;-69
2023/01/05 02:12:01;;;;;;;39.08;7.50;;;9.00;99.90;;;;;;4971994;28;20061;-69
2023/01/05 02:14:50;;;;;;;42.22;7.57;;;9.00;99.90;;;;;;5009549;28;20141;-69
2023/01/05 02:17:38;;;;;;;30.92;6.47;;;9.10;99.90;;;;;;4988882;28;20050;-69
2023/01/05 02:20:24;;;;;;;36.40;7.53;;;9.10;99.90;;;;;;4973139;28;20050;-70
2023/01/05 02:23:14;;;;;;;37.80;7.63;;;9.10;99.90;;;;;;4957391;28;20537;-70
2023/01/05 02:26:19;;;;;;;27.95;7.10;;;9.00;99.90;;;;;;4970884;28;20035;-69
2023/01/05 02:29:07;;;;;;;38.03;7.35;;;8.90;99.90;;;;;;4972683;28;20049;-69
2023/01/05 02:31:47;;;;;;;37.58;8.13;;;9.00;99.90;;;;;;4973526;28;20045;-69
2023/01/05 02:34:56;;;;;;;32.13;7.57;;;8.90;99.90;;;;;;4988014;28;20050;-69
2023/01/05 02:37:41;;;;;;;29.58;6.28;;;9.00;99.90;;;;;;4976151;28;20461;-70
2023/01/05 02:40:28;;;;;;;28.02;5.65;;;9.00;99.90;;;;;;4973161;28;20146;-69
2023/01/05 02:43:00;;;;;;;26.00;5.72;;;9.00;99.90;;;;;;4969537;28;20397;-70
2023/01/05 02:45:27;;;;;;;19.65;6.00;;;8.90;99.90;;;;;;4975063;28;20497;-69
2023/01/05 02:47:58;;;;;;;32.72;8.10;;;9.00;99.90;;;;;;4954660;28;20097;-69
2023/01/05 02:50:37;;;;;;;30.95;7.15;;;9.00;99.90;;;;;;4975995;28;20460;-70
2023/01/05 02:53:28;;;;;;;29.98;8.02;;;9.00;99.90;;;;;;5002475;28;20060;-69
2023/01/05 02:56:02;;;;;;;25.85;5.80;;;8.90;99.90;;;;;;4990339;28;20107;-68
2023/01/05 02:58:38;;;;;;;34.53;8.30;;;8.90;99.90;;;;;;4975386;28;20050;-69
2023/01/05 03:01:13;;;;;;;33.47;6.80;;;8.90;99.90;;;;;;4991200;28;20472;-69
2023/01/05 03:04:02;;;;;;;28.42;7.25;;;8.90;99.90;;;;;;4989748;28;20467;-70
2023/01/05 03:06:45;;;;;;;26.90;6.05;;;8.90;99.90;;;;;;5005364;28;20431;-69
2023/01/05 03:09:18;;;;;;;26.67;5.68;;;8.90;99.90;;;;;;4992149;28;20060;-69
2023/01/05 03:15:20;;;;;;;28.90;8.10;;;8.90;99.90;;;;;;4993566;28;20385;-71
2023/01/05 03:17:51;;;;;;;33.90;6.63;;;8.90;99.90;;;;;;4993395;28;20046;-72
2023/01/05 03:20:25;;;;;;;40.38;7.95;;;8.80;99.90;;;;;;4992169;28;20046;-71
2023/01/05 03:38:03;;;;;;;36.70;7.55;;;8.70;99.90;;;;;;4987946;28;20045;-71
2023/01/05 03:40:33;;;;;;;17.23;6.43;;;8.60;99.90;;;;;;4983596;28;20121;-72
2023/01/05 03:43:02;;;;;;;37.13;7.05;;;8.60;99.90;;;;;;4971468;28;20108;-72
2023/01/05 03:45:42;;;;;;;32.22;7.75;;;8.60;99.90;;;;;;4991383;28;20440;-71
2023/01/05 03:48:14;;;;;;;29.92;7.07;;;8.60;99.90;;;;;;5002498;28;20055;-71
2023/01/05 03:50:41;;;;;;;37.70;7.72;;;8.60;99.90;;;;;;4991415;28;20038;-70
2023/01/05 03:53:12;;;;;;;27.67;6.97;;;8.60;99.90;;;;;;4975161;28;20080;-70
2023/01/05 03:55:40;;;;;;;37.80;8.13;;;8.60;99.90;;;;;;4974830;28;20046;-69
2023/01/05 03:58:07;;;;;;;42.25;8.48;;;8.60;99.90;;;;;;4973933;28;20064;-70
2023/01/05 04:00:35;;;;;;;35.70;7.70;;;8.60;99.90;;;;;;4976083;28;20079;-69
2023/01/05 04:03:09;;;;;;;35.85;7.60;;;8.60;99.90;;;;;;4990892;28;20049;-69
2023/01/05 04:05:37;;;;;;;26.75;7.10;;;8.60;99.90;;;;;;4989509;28;20046;-70
2023/01/05 04:08:04;;;;;;;37.80;7.78;;;8.60;99.90;;;;;;4970721;28;20058;-69
2023/01/05 04:10:34;;;;;;;26.85;7.45;;;8.60;99.90;;;;;;4976328;28;20038;-69
2023/01/05 04:13:01;;;;;;;30.05;9.32;;;8.60;99.90;;;;;;4987738;28;20104;-70
2023/01/05 04:15:27;;;;;;;35.40;7.10;;;8.50;99.90;;;;;;4991937;28;20136;-69
2023/01/05 04:17:54;;;;;;;40.78;8.85;;;8.50;99.90;;;;;;4990962;28;20046;-70
2023/01/05 04:20:21;;;;;;;41.75;10.43;;;8.60;99.90;;;;;;4990797;28;20046;-70
2023/01/05 04:22:49;;;;;;;38.45;9.80;;;8.50;99.90;;;;;;4988209;28;20049;-70
2023/01/05 04:25:18;;;;;;;28.15;8.90;;;8.60;99.90;;;;;;4990815;28;20136;-70
2023/01/05 04:27:46;;;;;;;35.50;7.70;;;8.60;99.90;;;;;;4991040;28;20568;-70
2023/01/05 04:30:14;;;;;;;44.47;9.30;;;8.50;99.90;;;;;;4991049;28;20284;-70
2023/01/05 04:32:41;;;;;;;37.78;8.45;;;8.50;99.90;;;;;;4974994;28;20408;-69
2023/01/05 04:35:11;;;;;;;37.33;9.07;;;8.60;99.90;;;;;;4991570;28;20053;-70
2023/01/05 04:37:40;;;;;;;39.28;8.95;;;8.60;99.90;;;;;;4993012;28;20587;-70
2023/01/05 04:40:08;;;;;;;28.65;8.30;;;8.60;99.90;;;;;;4990295;28;20056;-69
2023/01/05 04:42:43;;;;;;;46.70;9.27;;;8.50;99.90;;;;;;4976472;28;20038;-68
2023/01/05 04:45:10;;;;;;;37.53;10.32;;;8.60;99.90;;;;;;4991362;28;20068;-69
2023/01/05 04:47:37;;;;;;;27.63;7.57;;;8.60;99.90;;;;;;4993159;28;20114;-69
2023/01/05 04:50:04;;;;;;;38.22;7.82;;;8.50;99.90;;;;;;4971841;28;20046;-70
2023/01/05 04:52:31;;;;;;;41.50;10.02;;;8.50;99.90;;;;;;4992727;28;20129;-69
2023/01/05 04:54:58;;;;;;;39.20;8.57;;;8.50;99.90;;;;;;4990085;28;20130;-69
2023/01/05 04:57:26;;;;;;;36.88;9.98;;;8.40;99.90;;;;;;4992269;28;20049;-70
2023/01/05 04:59:53;;;;;;;41.28;9.32;;;8.40;99.90;;;;;;4991077;28;20125;-69
2023/01/05 05:02:21;;;;;;;48.25;9.70;;;8.40;99.90;;;;;;4992017;28;20457;-70
2023/01/05 05:04:49;;;;;;;37.05;9.70;;;8.40;99.90;;;;;;4990723;28;20042;-70
2023/01/05 05:07:17;;;;;;;34.33;9.07;;;8.40;99.90;;;;;;4977695;28;21128;-69
2023/01/05 05:09:44;;;;;;;38.95;9.00;;;8.40;99.90;;;;;;4976027;28;20042;-70
2023/01/05 05:12:12;;;;;;;40.60;8.73;;;8.40;99.90;;;;;;4991240;28;20500;-72
2023/01/05 05:14:39;;;;;;;39.78;9.70;;;8.40;99.90;;;;;;4997388;28;20042;-70
2023/01/05 05:17:06;;;;;;;36.30;9.32;;;8.40;99.90;;;;;;4976285;28;20408;-70
2023/01/05 05:19:33;;;;;;;31.25;6.97;;;8.40;99.90;;;;;;4977304;28;20060;-69
2023/01/05 05:22:00;;;;;;;28.95;8.32;;;8.40;99.90;;;;;;4986750;28;20389;-69
2023/01/05 05:24:27;;;;;;;39.33;9.18;;;8.50;99.90;;;;;;4997414;28;20045;-69
2023/01/05 05:26:56;;;;;;;38.88;8.35;;;8.50;99.90;;;;;;4994640;28;20149;-69
2023/01/05 05:29:23;;;;;;;39.05;9.57;;;8.40;99.90;;;;;;4997924;28;20045;-68
2023/01/05 05:31:51;;;;;;;42.75;9.75;;;8.40;99.90;;;;;;4993326;28;20248;-69
2023/01/05 05:34:18;;;;;;;33.03;8.25;;;8.40;99.90;;;;;;4994746;28;20050;-69
2023/01/05 05:36:45;;;;;;;46.58;9.35;;;8.40;99.90;;;;;;4993003;28;20045;-68
2023/01/05 05:39:13;;;;;;;31.85;7.82;;;8.40;99.90;;;;;;4994665;28;20034;-69
2023/01/05 05:41:40;;;;;;;49.00;11.13;;;8.40;99.90;;;;;;4978699;28;20273;-69
2023/01/05 05:44:07;;;;;;;32.13;9.48;;;8.40;99.90;;;;;;4993459;28;20046;-70
2023/01/05 05:46:34;;;;;;;45.22;9.45;;;8.40;99.90;;;;;;4996863;28;20050;-70
2023/01/05 05:49:01;;;;;;;39.83;11.02;;;8.30;99.90;;;;;;4992137;28;20518;-69
2023/01/05 05:51:27;;;;;;;46.15;9.63;;;8.30;99.90;;;;;;4995508;28;20399;-70
2023/01/05 05:53:54;;;;;;;33.63;9.60;;;8.40;99.90;;;;;;4995482;28;20053;-70
2023/01/05 05:56:22;;;;;;;46.42;11.70;;;8.40;99.90;;;;;;4995021;28;20408;-70
2023/01/05 05:58:48;;;;;;;44.28;12.90;;;8.30;99.90;;;;;;4992680;28;20042;-70
2023/01/05 06:01:15;;;;;;;52.80;14.82;;;8.30;99.90;;;;;;4994114;28;20262;-70
2023/01/05 06:03:42;;;;;;;43.58;14.68;;;8.30;99.90;;;;;;4991383;28;20538;-70
2023/01/05 06:06:09;;;;;;;42.80;14.35;;;8.20;99.90;;;;;;4976191;28;20066;-70
2023/01/05 06:08:35;;;;;;;59.25;16.27;;;8.20;99.90;;;;;;4972693;28;20050;-70
2023/01/05 06:11:03;;;;;;;42.45;14.88;;;8.20;99.90;;;;;;4991069;28;20396;-70
2023/01/05 06:13:30;;;;;;;47.00;17.08;;;8.20;99.90;;;;;;4992742;28;20131;-70
2023/01/05 06:15:56;;;;;;;41.97;14.98;;;8.20;99.90;;;;;;4992220;28;20046;-70
2023/01/05 06:18:23;;;;;;;65.70;19.67;;;8.20;99.90;;;;;;4990762;28;20050;-71
2023/01/05 06:20:50;;;;;;;55.95;20.33;;;8.20;99.90;;;;;;4992041;28;20081;-71
2023/01/05 06:23:25;;;;;;;52.75;19.10;;;8.20;99.90;;;;;;4996578;28;20046;-70
2023/01/05 06:25:51;;;;;;;58.30;20.45;;;8.20;99.90;;;;;;4992193;28;20064;-71
2023/01/05 06:28:18;;;;;;;61.95;20.40;;;8.20;99.90;;;;;;4997119;28;20153;-70
2023/01/05 06:30:46;;;;;;;57.17;19.45;;;8.20;99.90;;;;;;4994174;28;20133;-69
2023/01/05 06:33:13;;;;;;;61.78;22.02;;;8.20;99.90;;;;;;4961313;28;20061;-70
2023/01/05 06:35:39;;;;;;;62.03;21.52;;;8.20;99.90;;;;;;4995784;28;20072;-71
2023/01/05 06:38:06;;;;;;;54.58;18.73;;;8.20;99.90;;;;;;4991215;28;20239;-70
2023/01/05 06:40:33;;;;;;;56.28;19.55;;;8.20;99.90;;;;;;4978781;28;20274;-70
2023/01/05 06:43:00;;;;;;;45.80;16.80;;;8.20;99.90;;;;;;4990432;28;20041;-71
2023/01/05 06:45:27;;;;;;;53.40;17.38;;;8.20;99.90;;;;;;4994255;28;20044;-70
2023/01/05 06:47:53;;;;;;;37.05;17.92;;;8.20;99.90;;;;;;4991908;28;20042;-70
2023/01/05 06:50:20;;;;;;;37.90;14.93;;;8.20;99.90;;;;;;4991617;28;20060;-69
2023/01/05 06:52:47;;;;;;;50.75;17.17;;;8.20;99.90;;;;;;4991047;28;20504;-70
2023/01/05 06:55:14;;;;;;;51.75;18.95;;;8.30;99.90;;;;;;4993395;28;20041;-70
2023/01/05 06:57:40;;;;;;;65.38;23.27;;;8.30;99.90;;;;;;4994379;28;20267;-71
2023/01/05 07:00:10;;;;;;;47.83;17.63;;;8.30;99.90;;;;;;4990291;28;20060;-70
2023/01/05 07:02:37;;;;;;;47.40;16.80;;;8.30;99.90;;;;;;4991284;28;20137;-70
2023/01/05 07:05:04;;;;;;;47.75;16.80;;;8.30;99.90;;;;;;4989357;28;20049;-70
2023/01/05 07:07:31;;;;;;;55.65;22.20;;;8.30;99.90;;;;;;4994187;28;20034;-70
2023/01/05 07:09:58;;;;;;;63.58;21.80;;;8.30;99.90;;;;;;4989085;28;20056;-69
2023/01/05 07:12:25;;;;;;;53.63;21.08;;;8.30;99.90;;;;;;4994694;28;20073;-70
2023/01/05 07:14:51;;;;;;;51.90;18.67;;;8.30;99.90;;;;;;4992504;28;20037;-71
2023/01/05 07:17:23;;;;;;;61.85;20.65;;;8.30;99.90;;;;;;4993644;28;20038;-71
2023/01/05 07:19:50;;;;;;;50.13;19.65;;;8.30;99.90;;;;;;4991584;28;20060;-70
2023/01/05 07:22:17;;;;;;;57.08;22.65;;;8.30;99.90;;;;;;4991069;28;20050;-70
2023/01/05 07:24:43;;;;;;;72.10;24.17;;;8.30;99.90;;;;;;4995790;28;20038;-70
2023/01/05 07:27:10;;;;;;;62.70;18.92;;;8.30;99.90;;;;;;4988008;28;20485;-69
2023/01/05 07:29:36;;;;;;;57.58;20.58;;;8.30;99.90;;;;;;4992056;28;20457;-70
2023/01/05 07:32:04;;;;;;;60.85;19.92;;;8.30;99.90;;;;;;4988367;28;20045;-70
2023/01/05 07:34:30;;;;;;;50.55;19.15;;;8.30;99.90;;;;;;4993818;28;20050;-69
2023/01/05 07:36:57;;;;;;;64.78;23.10;;;8.20;99.90;;;;;;4991100;28;20046;-70
2023/01/05 07:39:24;;;;;;;66.25;20.67;;;8.30;99.90;;;;;;4996961;28;20050;-71
2023/01/05 07:41:50;;;;;;;64.60;20.25;;;8.20;99.90;;;;;;4991505;28;20042;-70
2023/01/05 07:44:17;;;;;;;65.38;18.25;;;8.20;99.90;;;;;;4991018;28;20599;-70
2023/01/05 07:46:44;;;;;;;71.72;20.13;;;8.20;99.90;;;;;;4994196;28;20087;-70
2023/01/05 07:49:10;;;;;;;57.40;19.23;;;8.20;99.90;;;;;;4991246;28;20037;-70
2023/01/05 07:51:37;;;;;;;58.45;22.50;;;8.20;99.90;;;;;;4993620;28;20050;-70
2023/01/05 07:54:04;;;;;;;66.50;23.08;;;8.20;99.90;;;;;;4991559;28;20406;-70
2023/01/05 07:56:30;;;;;;;71.50;22.80;;;8.30;99.90;;;;;;4993792;28;20049;-70
2023/01/05 07:58:58;;;;;;;59.50;20.60;;;8.20;99.90;;;;;;4991313;28;20122;-69
2023/01/05 08:01:24;;;;;;;68.50;21.35;;;8.20;99.90;;;;;;4982617;28;20258;-70
2023/01/05 08:03:51;;;;;;;67.93;21.13;;;8.30;99.90;;;;;;4989498;28;20042;-71
2023/01/05 08:06:19;;;;;;;70.05;22.55;;;8.30;99.90;;;;;;4992043;28;20681;-70
2023/01/05 08:08:46;;;;;;;69.53;21.63;;;8.20;99.90;;;;;;4995405;28;20369;-71
2023/01/05 08:11:16;;;;;;;46.85;18.83;;;8.20;99.90;;;;;;4982021;28;20244;-70
2023/01/05 08:13:59;;;;;;;68.72;19.90;;;8.30;99.90;;;;;;4973220;28;20046;-71
2023/01/05 08:16:30;;;;;;;62.55;16.85;;;8.30;99.90;;;;;;4960900;28;20045;-70
2023/01/05 08:18:58;;;;;;;58.47;17.45;;;8.30;99.90;;;;;;4992527;28;20432;-71
2023/01/05 08:21:25;;;;;;;70.55;19.83;;;8.30;99.90;;;;;;4987612;28;20065;-71
2023/01/05 08:23:52;;;;;;;64.65;19.33;;;8.30;99.90;;;;;;4988911;28;20559;-71
2023/01/05 08:26:22;;;;;;;61.75;16.45;;;8.30;99.90;;;;;;4992974;28;20957;-69
2023/01/05 08:28:50;;;;;;;50.97;17.77;;;8.30;99.90;;;;;;4998272;28;20041;-70
2023/01/05 08:31:25;;;;;;;58.80;18.58;;;8.30;99.90;;;;;;4971169;28;20575;-70
2023/01/05 08:33:58;;;;;;;56.28;17.65;;;8.40;99.90;;;;;;4989451;28;20073;-69
2023/01/05 08:36:26;;;;;;;65.40;19.88;;;8.30;99.90;;;;;;4986291;28;20052;-70
2023/01/05 08:38:54;;;;;;;53.58;16.73;;;8.40;99.90;;;;;;4991881;28;20050;-70
2023/01/05 08:41:23;;;;;;;53.05;17.85;;;8.30;99.90;;;;;;4995172;28;20790;-69
2023/01/05 08:43:54;;;;;;;56.25;17.63;;;8.40;99.90;;;;;;5000350;28;20129;-69
2023/01/05 08:46:23;;;;;;;51.05;18.67;;;8.40;99.90;;;;;;4997621;28;20060;-70
2023/01/05 08:48:51;;;;;;;51.92;19.70;;;8.40;99.90;;;;;;4999498;28;20084;-69
2023/01/05 08:51:18;;;;;;;48.88;15.75;;;8.40;99.90;;;;;;4994571;28;20096;-70
2023/01/05 08:53:46;;;;;;;52.97;16.23;;;8.40;99.90;;;;;;4996876;28;20038;-71
2023/01/05 08:56:12;;;;;;;54.50;18.50;;;8.40;99.90;;;;;;4994904;28;20542;-70
2023/01/05 08:58:41;;;;;;;44.97;17.08;;;8.40;99.90;;;;;;4998824;28;20265;-70
2023/01/05 09:01:09;;;;;;;58.55;21.50;;;8.40;99.90;;;;;;4977124;28;20345;-70
2023/01/05 09:03:36;;;;;;;50.72;18.45;;;8.40;99.90;;;;;;4999069;28;20029;-70
2023/01/05 09:06:08;;;;;;;47.25;17.00;;;8.40;99.90;;;;;;4995445;28;20053;-70
2023/01/05 09:08:35;;;;;;;53.58;18.73;;;8.40;99.90;;;;;;4998209;28;20261;-70
2023/01/05 09:11:06;;;;;;;51.35;19.30;;;8.40;99.90;;;;;;4994968;28;20476;-70
2023/01/05 09:13:34;;;;;;;64.97;21.23;;;8.40;99.90;;;;;;5003448;23;20105;-70
2023/01/05 09:16:14;;;;;;;52.30;17.55;;;8.50;99.90;;;;;;4976237;28;20031;-70
2023/01/05 09:19:03;;;;;;;55.05;20.05;;;8.50;99.90;;;;;;4977214;28;20057;-70
2023/01/05 09:21:29;;;;;;;65.82;22.65;;;8.40;99.90;;;;;;4978213;28;20524;-70
2023/01/05 09:23:58;;;;;;;61.70;22.75;;;8.50;99.90;;;;;;4969841;28;20054;-69
2023/01/05 09:26:24;;;;;;;65.40;22.15;;;8.50;99.90;;;;;;4974751;28;20050;-70
2023/01/05 09:28:51;;;;;;;61.28;21.92;;;8.50;99.90;;;;;;4999380;28;20120;-70
2023/01/05 09:31:20;;;;;;;65.93;21.83;;;8.50;99.90;;;;;;4979136;28;20132;-70
2023/01/05 09:33:47;;;;;;;60.88;21.30;;;8.50;99.90;;;;;;5000542;28;20049;-70
2023/01/05 09:36:16;;;;;;;57.15;20.58;;;8.50;99.90;;;;;;4995591;28;20123;-69
2023/01/05 09:38:46;;;;;;;52.95;21.65;;;8.50;99.90;;;;;;5000490;28;20053;-70
2023/01/05 09:41:33;;;;;;;68.65;23.35;;;8.50;99.90;;;;;;4997976;28;20141;-69
2023/01/05 09:44:35;;;;;;;62.15;21.42;;;8.50;99.90;;;;;;5007731;28;20064;-70
2023/01/05 09:47:17;;;;;;;61.78;21.95;;;8.50;99.90;;;;;;4991490;28;20350;-70
2023/01/05 09:49:47;;;;;;;62.40;24.08;;;8.50;99.90;;;;;;4998781;28;20038;-70
2023/01/05 09:52:14;;;;;;;50.38;21.30;;;8.50;99.90;;;;;;4991581;28;20760;-69
2023/01/05 09:54:41;;;;;;;68.05;22.05;;;8.50;99.90;;;;;;4996502;28;20041;-69
2023/01/05 09:57:20;;;;;;;69.97;21.67;;;8.50;99.90;;;;;;4993584;28;20061;-71
2023/01/05 09:59:51;;;;;;;66.85;22.30;;;8.50;99.90;;;;;;4997376;28;20046;-70
2023/01/05 10:02:25;;;;;;;67.35;22.58;;;8.50;99.90;;;;;;4989803;28;20073;-71
2023/01/05 10:04:54;;;;;;;71.50;24.48;;;8.50;99.90;;;;;;4978963;28;20080;-70
2023/01/05 10:07:33;;;;;;;56.58;23.65;;;8.60;99.90;;;;;;4991861;28;20120;-71
2023/01/05 10:10:16;;;;;;;65.97;23.60;;;8.60;99.90;;;;;;4990625;28;20393;-69
2023/01/05 10:13:04;;;;;;;62.95;23.95;;;8.50;99.90;;;;;;4995557;28;20460;-70
2023/01/05 10:15:45;;;;;;;64.05;21.65;;;8.60;99.90;;;;;;4993959;28;20042;-70
2023/01/05 10:18:16;;;;;;;56.15;22.27;;;8.60;99.90;;;;;;4991426;28;20062;-71
2023/01/05 10:21:11;;;;;;;64.65;23.55;;;8.60;99.90;;;;;;4995625;28;20052;-70
2023/01/05 10:23:49;;;;;;;52.20;19.40;;;8.60;99.90;;;;;;4993451;28;20442;-70
2023/01/05 10:26:35;;;;;;;61.15;20.52;;;8.60;99.90;;;;;;4990818;28;20393;-68
2023/01/05 10:29:37;;;;;;;;;;;8.60;99.90;;;;;;4993901;28;20044;-69
2023/01/05 10:32:04;;;;;;;43.38;18.42;;;8.60;99.90;;;;;;4988401;28;19928;-69
2023/01/05 10:34:49;;;;;;;49.97;18.90;;;8.70;99.90;;;;;;4977871;28;20452;-69
2023/01/05 10:37:44;;;;;;;44.28;16.65;;;8.70;99.90;;;;;;4988590;28;20361;-68
2023/01/05 10:40:11;;;;;;;48.65;16.73;;;8.70;99.90;;;;;;4989682;28;20176;-69
2023/01/05 10:43:00;;;;;;;42.20;16.33;;;8.70;99.90;;;;;;4992839;28;20061;-68
2023/01/05 10:45:29;;;;;;;54.30;17.92;;;8.70;99.90;;;;;;5021919;28;20128;-69
2023/01/05 10:47:57;;;;;;;54.10;18.70;;;8.70;99.90;;;;;;5023395;28;20100;-69
2023/01/05 10:50:34;;;;;;;52.67;17.17;;;8.70;99.90;;;;;;4995855;28;20480;-69
2023/01/05 10:53:07;;;;;;;53.58;17.70;;;8.70;99.90;;;;;;4987996;28;20407;-69
2023/01/05 10:55:46;;;;;;;37.20;15.00;;;8.70;99.90;;;;;;4985860;28;20054;-68
2023/01/05 10:58:27;;;;;;;50.75;17.25;;;8.70;99.90;;;;;;4991231;28;20046;-68
2023/01/05 11:01:16;;;;;;;53.65;19.48;;;8.70;99.90;;;;;;4993316;28;20073;-69
2023/01/05 11:03:46;;;;;;;57.20;20.33;;;8.70;99.90;;;;;;4972681;28;20092;-69
2023/01/05 11:06:35;;;;;;;59.92;21.40;;;8.70;99.90;;;;;;4990095;28;20030;-69
2023/01/05 11:09:20;;;;;;;56.75;20.60;;;8.80;99.90;;;;;;4989949;28;20046;-69
2023/01/05 11:12:19;;;;;;;50.10;19.23;;;8.80;99.90;;;;;;4992114;28;20033;-73
2023/01/05 11:14:56;;;;;;;46.25;18.88;;;8.80;99.90;;;;;;5017132;28;20216;-75
2023/01/05 11:17:27;;;;;;;48.50;19.33;;;8.90;99.90;;;;;;4964255;28;20099;-74
2023/01/05 11:19:56;;;;;;;51.25;18.45;;;8.90;99.90;;;;;;4995951;28;20046;-74
2023/01/05 11:22:35;;;;;;;45.97;18.25;;;8.90;99.90;;;;;;4976167;28;20054;-75
2023/01/05 11:25:26;;;;;;;47.75;17.13;;;9.00;99.90;;;;;;4992057;28;20494;-74
2023/01/05 11:28:16;;;;;;;47.45;14.85;;;8.90;99.90;;;;;;4983394;28;20042;-74
2023/01/05 11:30:59;;;;;;;40.60;15.45;;;8.90;99.90;;;;;;4981933;28;20045;-74
2023/01/05 11:33:28;;;;;;;41.55;16.33;;;8.90;99.90;;;;;;4967439;28;20042;-75
2023/01/05 11:35:56;;;;;;;42.78;15.45;;;8.90;99.90;;;;;;4993154;28;20037;-74
2023/01/05 11:38:26;;;;;;;49.97;14.85;;;8.90;99.90;;;;;;4970417;28;20568;-77
2023/01/05 11:40:55;;;;;;;46.53;15.75;;;8.90;99.90;;;;;;4982620;28;20030;-77
2023/01/05 11:43:26;;;;;;;43.05;14.77;;;8.90;99.90;;;;;;4979463;28;20046;-74
2023/01/05 11:45:59;;;;;;;41.17;14.10;;;8.90;99.90;;;;;;4974873;28;20116;-74
2023/01/05 11:48:30;;;;;;;42.47;14.38;;;8.90;99.90;;;;;;4987436;28;20042;-73
2023/01/05 11:50:58;;;;;;;49.45;15.23;;;9.00;99.90;;;;;;4992021;28;20273;-71
2023/01/05 11:53:33;;;;;;;41.60;15.20;;;9.00;99.90;;;;;;4992064;28;20108;-70
2023/01/05 11:56:06;;;;;;;43.05;15.23;;;9.00;99.90;;;;;;4989351;28;20046;-69
2023/01/05 11:58:45;;;;;;;53.30;14.90;;;9.00;99.90;;;;;;5005367;28;20086;-70
2023/01/05 12:01:40;;;;;;;44.85;15.35;;;8.90;99.90;;;;;;4987775;28;20053;-70
2023/01/05 12:04:13;;;;;;;50.00;13.93;;;9.00;99.90;;;;;;4993868;28;20611;-71
2023/01/05 12:07:16;;;;;;;40.17;11.40;;;9.00;99.90;;;;;;4975102;28;20038;-70
2023/01/05 12:09:52;;;;;;;46.53;13.57;;;8.90;99.90;;;;;;4974036;28;20052;-70
2023/01/05 12:12:29;;;;;;;57.30;15.82;;;9.00;99.90;;;;;;4988231;28;20552;-69
2023/01/05 12:15:14;;;;;;;44.53;13.98;;;9.00;99.90;;;;;;4991799;28;20049;-70
2023/01/05 12:18:05;;;;;;;38.80;13.07;;;8.90;99.90;;;;;;4987333;28;20304;-69
2023/01/05 12:20:55;;;;;;;44.83;13.45;;;8.90;99.90;;;;;;4985874;28;20736;-70
2023/01/05 12:23:55;;;;;;;33.42;12.70;;;9.00;99.90;;;;;;4988125;28;20096;-70
2023/01/05 12:26:25;;;;;;;41.70;9.82;;;8.90;99.90;;;;;;4989741;28;20061;-69
2023/01/05 12:29:17;;;;;;;51.20;14.65;;;8.90;99.90;;;;;;4994366;28;20419;-70
2023/01/05 12:32:45;;;;;;;40.60;13.77;;;9.00;99.90;;;;;;4987505;28;20301;-70
2023/01/05 12:35:41;;;;;;;33.20;11.13;;;9.00;99.90;;;;;;4985962;28;20042;-70
2023/01/05 12:38:19;;;;;;;41.53;12.20;;;9.00;99.90;;;;;;5004186;28;20061;-71
2023/01/05 12:41:09;;;;;;;23.80;11.48;;;9.00;99.90;;;;;;4991145;28;20042;-71
2023/01/05 12:44:14;;;;;;;40.58;11.10;;;9.00;99.90;;;;;;4992250;28;20497;-70
2023/01/05 12:46:57;;;;;;;30.20;11.15;;;9.00;99.90;;;;;;4986070;28;20399;-70
2023/01/05 12:49:31;;;;;;;45.33;12.35;;;9.00;99.90;;;;;;4966756;28;20093;-72
2023/01/05 12:52:20;;;;;;;38.97;11.90;;;9.00;99.90;;;;;;4990616;28;20038;-73
2023/01/05 12:55:13;;;;;;;47.95;13.45;;;9.00;99.90;;;;;;4990455;28;20380;-71
2023/01/05 12:57:44;;;;;;;33.10;11.18;;;8.90;99.90;;;;;;4987135;28;20045;-69
2023/01/05 13:00:17;;;;;;;53.83;15.40;;;8.90;99.90;;;;;;4986884;28;20072;-71
2023/01/05 13:02:55;;;;;;;40.15;12.35;;;8.90;99.90;;;;;;4990500;28;20054;-71
2023/01/05 13:05:40;;;;;;;36.95;13.18;;;8.90;99.90;;;;;;4987516;28;20318;-72
2023/01/05 13:08:33;;;;;;;38.45;13.18;;;9.00;99.90;;;;;;4987758;28;20104;-72
2023/01/05 13:11:04;;;;;;;45.95;13.63;;;9.00;99.90;;;;;;4988262;28;20054;-71
2023/01/05 13:13:36;;;;;;;49.38;13.60;;;9.00;99.90;;;;;;4991509;28;20046;-71
2023/01/05 13:16:18;;;;;;;35.45;11.93;;;9.00;99.90;;;;;;4987887;28;20053;-71
2023/01/05 13:19:11;;;;;;;40.75;13.45;;;8.90;99.90;;;;;;4992853;28;20038;-71
2023/01/05 13:21:41;;;;;;;38.25;13.20;;;9.00;99.90;;;;;;4980440;28;20045;-71
2023/01/05 13:24:16;;;;;;;45.92;12.85;;;8.90;99.90;;;;;;5001259;28;20152;-70
2023/01/05 13:26:43;;;;;;;;;;;8.90;99.90;;;;;;4994298;28;20038;-70
2023/01/05 13:29:24;;;;;;;33.47;10.73;;;9.00;99.90;;;;;;4983456;28;19960;-70
2023/01/05 13:32:00;;;;;;;34.45;11.50;;;9.00;99.90;;;;;;4979260;28;20047;-71
2023/01/05 13:34:40;;;;;;;46.83;13.65;;;8.90;99.90;;;;;;4977084;28;20233;-71
2023/01/05 13:37:18;;;;;;;44.42;13.35;;;8.90;99.90;;;;;;4990676;28;20135;-71
2023/01/05 13:40:27;;;;;;;41.97;13.07;;;9.00;99.90;;;;;;4981692;28;20106;-71